West Chester, Ohio
Current Conditions -  °F | °C
As of 5:53 PM on Saturday 25 Oct 2014 (Local Time) from KHAO Reporting Station
Clear Clear  
Wind Chill: 23°   Ceiling: Unl
Heat Index: 23°   Visibility: 10mi
Dew Point: 12°   Wind: 8mph
Humidity: 49%   Direction: 250°WSW
Pressure: 29.91"   Gusts: NA
Location:  39.33°N, 84.4°W
Report Text: KHAO 252153Z AUTO 25007KT 10SM CLR 23/12 A2991 RMK AO2 SLP128 T02280117
Loading
Personal Weather Stations






























Interactive Weather Map
Tropical Storm Tracking
New forecast layout! Learn more

10-Day Weather Forecast

Advertisements
Track Severe Weather on mobile